Time;durP1;ratioP1;P1;durP2;ratioP2;P2;SDS_P1;SDS_P2;PMS_P1;PMS_P2;Temp;Humidity;BMP_temperature;BMP_pressure;BME280_temperature;BME280_humidity;BME280_pressure;Samples;Min_cycle;Max_cycle;Signal;HPM_P1;HPM_P2
2022/09/01 00:00:07;;;;;;;0.60;0.60;;;16.90;74.60;;;17.00;60.78;95275.22;5017867;28;20188;-80
2022/09/01 00:02:34;;;;;;;0.60;0.60;;;16.90;74.70;;;16.96;60.88;95274.84;5010982;28;20331;-79
2022/09/01 00:05:04;;;;;;;0.60;0.60;;;16.80;74.60;;;16.96;60.57;95282.78;4995401;28;20202;-79
2022/09/01 00:07:34;;;;;;;0.60;0.60;;;16.80;74.60;;;16.93;61.18;95269.97;4998537;28;20228;-79
2022/09/01 00:10:05;;;;;;;0.60;0.60;;;16.80;74.60;;;16.91;61.02;95277.31;5012546;28;20268;-80
2022/09/01 00:12:34;;;;;;;0.50;0.50;;;16.70;74.70;;;16.88;60.66;95275.94;5013998;28;20230;-79
2022/09/01 00:15:01;;;;;;;0.80;0.80;;;16.70;74.60;;;16.85;61.10;95278.22;5013904;28;20200;-79
2022/09/01 00:17:29;;;;;;;0.60;0.60;;;16.70;74.70;;;16.84;60.77;95274.75;5022082;28;20224;-80
2022/09/01 00:19:56;;;;;;;0.60;0.60;;;16.70;74.50;;;16.80;61.03;95269.06;5009932;28;20208;-80
2022/09/01 00:22:23;;;;;;;0.50;0.50;;;16.60;74.60;;;16.78;61.10;95265.84;5020416;28;20619;-79
2022/09/01 00:24:50;;;;;;;0.50;0.50;;;16.60;74.70;;;16.76;60.85;95265.25;5026393;28;20208;-80
2022/09/01 00:27:17;;;;;;;0.60;0.60;;;16.60;74.70;;;16.76;60.77;95261.78;5020892;28;20240;-80
2022/09/01 00:29:44;;;;;;;0.55;0.55;;;16.70;74.80;;;16.73;61.12;95262.25;5024679;28;20343;-80
2022/09/01 00:32:12;;;;;;;0.60;0.60;;;16.60;74.70;;;16.68;60.83;95259.47;5017092;28;20231;-79
2022/09/01 00:34:40;;;;;;;0.60;0.60;;;16.50;74.70;;;16.64;60.86;95259.88;5000614;28;20188;-79
2022/09/01 00:37:07;;;;;;;0.60;0.60;;;16.60;74.80;;;16.61;61.23;95251.56;5012555;28;20274;-80
2022/09/01 00:39:34;;;;;;;0.60;0.60;;;16.50;74.80;;;16.57;61.12;95251.22;5003214;28;20224;-81
2022/09/01 00:42:02;;;;;;;0.50;0.50;;;16.50;74.80;;;16.57;61.27;95259.16;5023741;28;20260;-79
2022/09/01 00:44:30;;;;;;;0.50;0.50;;;16.40;74.70;;;16.54;61.21;95253.47;5011222;28;20193;-80
2022/09/01 00:46:58;;;;;;;0.57;0.57;;;16.40;74.70;;;16.48;60.82;95257.84;5005939;28;20787;-79
2022/09/01 00:49:36;;;;;;;0.60;0.60;;;16.40;74.70;;;16.42;60.73;95258.72;5009761;28;20189;-80
2022/09/01 00:52:09;;;;;;;0.60;0.60;;;16.30;75.00;;;16.38;61.24;95262.81;5009181;28;20311;-79
2022/09/01 00:54:41;;;;;;;0.60;0.60;;;16.30;74.80;;;16.32;61.06;95265.31;5001968;28;20274;-80
2022/09/01 00:57:09;;;;;;;0.63;0.63;;;16.20;74.70;;;16.26;60.88;95260.09;5013872;28;20278;-80
2022/09/01 01:00:14;;;;;;;0.60;0.60;;;16.20;74.60;;;16.21;60.86;95267.88;4997560;28;20223;-79
2022/09/01 01:02:43;;;;;;;0.60;0.60;;;16.10;74.80;;;16.13;60.86;95264.47;4997013;28;20303;-80
2022/09/01 01:05:13;;;;;;;0.60;0.60;;;16.00;74.50;;;16.09;61.14;95254.56;4994399;28;20517;-79
2022/09/01 01:07:43;;;;;;;0.60;0.60;;;16.00;74.70;;;16.03;61.43;95260.69;5016976;28;20224;-78
2022/09/01 01:10:17;;;;;;;0.50;0.50;;;15.90;74.80;;;15.98;61.53;95256.88;5018277;28;20219;-80
2022/09/01 01:12:44;;;;;;;0.52;0.52;;;15.90;74.90;;;15.96;61.59;95253.63;5024860;28;20216;-78
2022/09/01 01:15:13;;;;;;;0.70;0.70;;;15.80;74.90;;;15.92;61.55;95256.97;5019070;28;20687;-79
2022/09/01 01:17:40;;;;;;;0.60;0.60;;;15.80;75.00;;;15.86;61.50;95249.88;5013364;28;20301;-80
2022/09/01 01:23:35;;;;;;;0.60;0.60;;;15.70;75.00;;;15.75;61.15;95257.44;5023621;28;20238;-77
2022/09/01 01:26:09;;;;;;;0.70;0.70;;;15.70;75.30;;;15.69;61.57;95247.75;4998389;28;20302;-79
2022/09/01 01:28:40;;;;;;;0.70;0.70;;;15.60;75.00;;;15.67;61.59;95255.06;5006846;28;20215;-80
2022/09/01 01:31:17;;;;;;;0.60;0.60;;;15.60;75.10;;;15.62;61.53;95246.97;5023048;28;20221;-80
2022/09/01 01:33:55;;;;;;;0.60;0.60;;;15.50;75.10;;;15.58;61.46;95245.78;5022488;28;20201;-80
2022/09/01 01:36:31;;;;;;;0.60;0.60;;;15.50;75.30;;;15.56;61.69;95256.56;4997120;28;20224;-80
2022/09/01 01:39:20;;;;;;;0.70;0.70;;;15.40;75.20;;;15.50;61.86;95257.44;5014368;28;20283;-80
2022/09/01 01:41:49;;;;;;;0.70;0.70;;;15.40;75.30;;;15.46;61.72;95251.75;5003514;28;20231;-80
2022/09/01 01:44:26;;;;;;;0.60;0.60;;;15.30;75.10;;;15.45;61.76;95260.72;4983847;28;20272;-80
2022/09/01 01:47:01;;;;;;;0.60;0.60;;;15.30;75.20;;;15.40;61.43;95257.91;5016335;28;20339;-79
2022/09/01 01:49:29;;;;;;;0.50;0.50;;;15.30;75.10;;;15.37;61.53;95245.13;5014366;28;20189;-80
2022/09/01 01:51:57;;;;;;;0.50;0.50;;;15.20;75.00;;;15.33;61.85;95249.19;4987404;28;20221;-80
2022/09/01 01:54:30;;;;;;;0.60;0.60;;;15.20;75.10;;;15.27;61.44;95245.59;5010290;28;20296;-77
2022/09/01 01:56:59;;;;;;;0.60;0.60;;;15.10;75.10;;;15.24;61.67;95239.91;5012388;28;20225;-80
2022/09/01 01:59:28;;;;;;;0.70;0.70;;;15.10;75.20;;;15.19;61.40;95251.91;5013913;28;20726;-80
2022/09/01 02:01:55;;;;;;;0.60;0.60;;;15.00;75.10;;;15.15;61.58;95245.44;5005556;28;20226;-78
2022/09/01 02:04:23;;;;;;;0.50;0.50;;;15.00;75.20;;;15.11;61.60;95241.63;4997036;28;20555;-80
2022/09/01 02:06:52;;;;;;;0.60;0.60;;;15.00;75.30;;;15.07;61.82;95242.25;4997425;28;20233;-80
2022/09/01 02:09:22;;;;;;;0.70;0.70;;;14.90;75.20;;;15.02;61.89;95245.53;5008482;28;20201;-80
2022/09/01 02:11:56;;;;;;;0.45;0.45;;;14.90;75.30;;;14.98;62.01;95239.06;4997180;28;20283;-79
2022/09/01 02:14:23;;;;;;;0.60;0.60;;;14.90;75.40;;;14.94;61.81;95238.66;5003165;28;20220;-79
2022/09/01 02:16:51;;;;;;;0.60;0.60;;;14.80;75.40;;;14.87;62.08;95229.97;5029215;28;20244;-80
2022/09/01 02:19:19;;;;;;;0.80;0.80;;;14.80;75.50;;;14.87;62.11;95237.88;5013192;28;20219;-80
2022/09/01 02:21:53;;;;;;;0.70;0.70;;;14.70;75.40;;;14.84;62.13;95233.84;5019723;28;20227;-79
2022/09/01 02:24:20;;;;;;;0.60;0.60;;;14.70;75.50;;;14.80;61.92;95237.91;4999464;28;20208;-79
2022/09/01 02:26:49;;;;;;;0.60;0.60;;;14.70;75.50;;;14.78;62.18;95244.41;5014534;28;20636;-80
2022/09/01 02:29:21;;;;;;;0.60;0.60;;;14.60;75.40;;;14.75;61.80;95248.28;4982571;28;20263;-80
2022/09/01 02:31:52;;;;;;;0.50;0.50;;;14.60;75.70;;;14.69;62.12;95242.00;5012932;28;20681;-78
2022/09/01 02:34:22;;;;;;;0.50;0.50;;;14.60;75.80;;;14.69;62.23;95244.66;4979129;28;20254;-79
2022/09/01 02:36:54;;;;;;;0.80;0.80;;;14.60;76.00;;;14.67;62.41;95241.41;4981422;28;20219;-80
2022/09/01 02:39:32;;;;;;;0.70;0.70;;;14.60;76.00;;;14.61;61.98;95236.13;4996653;28;20734;-80
2022/09/01 02:42:00;;;;;;;0.60;0.60;;;14.50;75.90;;;14.63;62.35;95236.72;4996674;28;20221;-79
2022/09/01 02:44:30;;;;;;;0.60;0.60;;;14.50;75.80;;;14.62;62.10;95243.81;4996811;28;20225;-80
2022/09/01 02:46:59;;;;;;;0.70;0.70;;;14.40;75.80;;;14.59;62.30;95238.97;4996284;28;20216;-80
2022/09/01 02:49:28;;;;;;;0.60;0.60;;;14.40;75.70;;;14.54;62.23;95236.16;5014059;28;20196;-78
2022/09/01 02:52:01;;;;;;;0.60;0.60;;;14.40;75.60;;;14.51;62.30;95241.84;5006055;28;20310;-78
2022/09/01 02:54:31;;;;;;;0.60;0.60;;;14.40;75.80;;;14.48;62.27;95239.63;5012310;28;20208;-79
2022/09/01 02:56:59;;;;;;;0.70;0.70;;;14.30;75.70;;;14.42;62.18;95233.34;5011648;28;20243;-80
2022/09/01 02:59:29;;;;;;;0.60;0.60;;;14.30;75.60;;;14.41;62.26;95235.19;5013906;28;20390;-80
2022/09/01 03:02:00;;;;;;;0.68;0.68;;;14.20;75.70;;;14.36;62.17;95237.63;5013698;28;20682;-80
2022/09/01 03:04:33;;;;;;;0.60;0.60;;;14.20;75.70;;;14.34;62.13;95236.22;4996187;28;20188;-80
2022/09/01 03:07:04;;;;;;;0.52;0.52;;;14.20;75.70;;;14.31;62.23;95236.63;5014434;28;20757;-80
2022/09/01 03:09:32;;;;;;;0.60;0.60;;;14.20;75.90;;;14.26;62.42;95229.34;4994962;28;20240;-79
2022/09/01 03:12:00;;;;;;;0.70;0.70;;;14.10;75.80;;;14.25;62.39;95235.63;5011645;28;20212;-80
2022/09/01 03:14:28;;;;;;;0.60;0.60;;;14.10;75.80;;;14.22;62.39;95242.13;5023343;28;20228;-80
2022/09/01 03:16:56;;;;;;;0.60;0.60;;;14.10;75.90;;;14.20;62.55;95232.81;4997734;28;20724;-80
2022/09/01 03:19:23;;;;;;;0.60;0.60;;;14.10;76.00;;;14.18;62.48;95230.34;5011662;28;20196;-80
2022/09/01 03:21:50;;;;;;;0.60;0.60;;;14.10;76.00;;;14.17;62.46;95227.94;5011296;28;20213;-78
2022/09/01 03:24:23;;;;;;;0.65;0.65;;;14.00;76.00;;;14.13;62.42;95235.44;5029521;28;20200;-79
2022/09/01 03:26:51;;;;;;;0.80;0.80;;;14.00;76.00;;;14.11;62.45;95232.22;5012902;28;20232;-79
2022/09/01 03:29:19;;;;;;;0.65;0.65;;;14.00;76.10;;;14.11;62.56;95231.38;4993569;28;20254;-78
2022/09/01 03:31:46;;;;;;;0.60;0.60;;;14.00;76.20;;;14.09;62.40;95231.59;5015055;28;20708;-81
2022/09/01 03:34:15;;;;;;;0.60;0.60;;;13.90;76.10;;;14.09;62.44;95234.25;5013595;28;20208;-80
2022/09/01 03:36:50;;;;;;;0.60;0.60;;;13.90;76.20;;;14.06;62.64;95226.72;5025274;28;20228;-79
2022/09/01 03:39:25;;;;;;;0.70;0.70;;;13.90;76.20;;;14.01;62.54;95226.53;5014336;28;20226;-80
2022/09/01 03:41:52;;;;;;;0.70;0.70;;;13.90;76.20;;;14.03;62.74;95225.31;5021554;28;20200;-79
2022/09/01 03:44:20;;;;;;;0.70;0.70;;;13.80;76.20;;;14.02;62.73;95228.97;5010300;28;20201;-80
2022/09/01 03:46:47;;;;;;;0.70;0.70;;;13.90;76.30;;;14.01;62.63;95219.44;4992171;28;20251;-80
2022/09/01 03:49:15;;;;;;;0.70;0.70;;;13.90;76.30;;;13.99;62.98;95228.56;5008229;28;20200;-80
2022/09/01 03:51:43;;;;;;;0.70;0.70;;;13.80;76.40;;;14.02;62.66;95230.81;5012650;28;20279;-79
2022/09/01 03:54:11;;;;;;;0.65;0.65;;;13.80;76.50;;;14.02;63.03;95226.31;5029545;28;20267;-82
2022/09/01 03:56:40;;;;;;;0.70;0.70;;;13.80;76.60;;;14.02;62.87;95231.59;5017441;28;20216;-80
2022/09/01 03:59:15;;;;;;;0.60;0.60;;;13.90;76.70;;;14.03;63.07;95227.16;5014310;28;20230;-81
2022/09/01 04:01:45;;;;;;;0.73;0.73;;;13.80;76.70;;;14.03;62.80;95235.84;5010182;28;20221;-80
2022/09/01 04:04:14;;;;;;;0.70;0.70;;;13.80;76.80;;;14.04;63.17;95232.22;4993701;28;20204;-80
2022/09/01 04:06:44;;;;;;;0.70;0.70;;;13.90;76.90;;;14.09;63.02;95231.59;4991660;28;20294;-79
2022/09/01 04:09:13;;;;;;;0.70;0.70;;;13.90;77.20;;;14.13;63.28;95239.91;5004403;28;20231;-80
2022/09/01 04:11:45;;;;;;;0.60;0.60;;;14.00;77.20;;;14.15;63.22;95238.69;5008920;28;20220;-80
2022/09/01 04:14:15;;;;;;;0.70;0.70;;;13.90;77.30;;;14.19;63.02;95242.53;4992267;28;20314;-80
2022/09/01 04:19:38;;;;;;;0.60;0.60;;;14.00;77.40;;;14.25;63.43;95243.53;5043505;28;20563;-81
2022/09/01 04:22:06;;;;;;;0.60;0.60;;;14.10;77.50;;;14.30;63.47;95243.72;5012972;28;20227;-80
2022/09/01 04:24:44;;;;;;;0.70;0.70;;;14.10;77.50;;;14.34;63.31;95237.03;5015598;28;20208;-81
2022/09/01 04:27:14;;;;;;;0.80;0.80;;;14.10;77.50;;;14.37;63.74;95233.16;5008974;28;20236;-80
2022/09/01 04:29:42;;;;;;;0.60;0.60;;;14.20;77.60;;;14.44;63.54;95241.88;5025546;28;20193;-81
2022/09/01 04:32:11;;;;;;;0.70;0.70;;;14.20;77.60;;;14.49;64.01;95233.31;4985072;28;20231;-80
2022/09/01 04:34:42;;;;;;;0.60;0.60;;;14.30;77.60;;;14.54;63.57;95233.53;5032177;28;20237;-80
2022/09/01 04:37:17;;;;;;;0.60;0.60;;;14.30;77.60;;;14.58;63.85;95235.50;4999625;28;20823;-79
2022/09/01 04:39:53;;;;;;;0.75;0.75;;;14.40;77.70;;;14.62;64.02;95237.75;5015096;28;20200;-81
2022/09/01 04:42:28;;;;;;;0.60;0.60;;;14.40;77.70;;;14.69;63.76;95235.94;5020739;28;20236;-81
2022/09/01 04:45:00;;;;;;;0.65;0.65;;;14.50;77.80;;;14.73;63.98;95237.94;5014462;28;20662;-81
2022/09/01 04:47:40;;;;;;;0.73;0.73;;;14.60;77.80;;;14.76;63.67;95233.25;4998584;28;20695;-81
2022/09/01 04:50:15;;;;;;;0.70;0.70;;;14.60;77.80;;;14.81;63.94;95236.09;4998933;28;20201;-81
2022/09/01 04:53:00;;;;;;;0.80;0.80;;;14.70;77.90;;;14.84;63.91;95235.66;5001367;28;20224;-81
2022/09/01 04:55:30;;;;;;;0.60;0.60;;;14.70;77.90;;;14.85;63.85;95230.16;5014914;28;20659;-80
2022/09/01 04:58:01;;;;;;;0.60;0.60;;;14.70;77.80;;;14.88;63.66;95236.88;4998683;28;20244;-80
2022/09/01 05:00:34;;;;;;;0.70;0.70;;;14.70;77.90;;;14.90;63.56;95234.81;4999324;28;20211;-80
2022/09/01 05:03:03;;;;;;;0.70;0.70;;;14.70;77.70;;;14.93;63.60;95241.50;5015316;28;20714;-80
2022/09/01 05:05:54;;;;;;;0.80;0.80;;;14.80;78.00;;;14.96;63.77;95244.53;5019670;28;20205;-80
2022/09/01 05:08:22;;;;;;;0.60;0.60;;;14.80;77.90;;;15.01;64.16;95242.09;4998570;28;20232;-81
2022/09/01 05:10:55;;;;;;;0.70;0.70;;;14.90;78.10;;;15.05;63.87;95245.13;5014581;28;20192;-81
2022/09/01 05:13:47;;;;;;;0.80;0.80;;;14.90;78.10;;;15.07;63.94;95237.78;4988067;28;20219;-81
2022/09/01 05:16:20;;;;;;;0.60;0.60;;;15.00;78.10;;;15.13;63.90;95236.91;4982287;28;20213;-80
2022/09/01 05:18:55;;;;;;;0.60;0.60;;;15.00;78.20;;;15.16;64.25;95236.50;4999199;28;20188;-80
2022/09/01 05:21:25;;;;;;;0.60;0.60;;;15.00;78.10;;;15.25;64.31;95239.69;4998659;28;20564;-80
2022/09/01 05:23:53;;;;;;;0.40;0.40;;;15.10;78.20;;;15.29;64.41;95248.81;5014359;28;20645;-81
2022/09/01 05:26:28;;;;;;;0.60;0.60;;;15.10;78.20;;;15.36;64.02;95243.50;5014149;28;20250;-80
2022/09/01 05:29:00;;;;;;;0.60;0.60;;;15.20;78.30;;;15.38;64.46;95241.47;5014501;28;20253;-79
2022/09/01 05:31:33;;;;;;;0.60;0.60;;;15.30;78.40;;;15.46;64.29;95246.47;4982094;28;20228;-81
2022/09/01 05:34:02;;;;;;;0.80;0.80;;;15.30;78.40;;;15.51;64.08;95243.19;5014288;28;20204;-80
2022/09/01 05:36:32;;;;;;;0.60;0.60;;;15.30;78.40;;;15.57;63.73;95241.53;5014100;28;20244;-80
2022/09/01 05:39:00;;;;;;;0.60;0.60;;;15.40;78.40;;;15.61;64.21;95246.19;4998002;28;20258;-81
2022/09/01 05:41:28;;;;;;;0.60;0.60;;;15.50;78.30;;;15.64;64.03;95235.16;5013429;28;20315;-81
2022/09/01 05:43:55;;;;;;;0.70;0.70;;;15.50;78.10;;;15.73;64.51;95234.91;5014116;28;20279;-81
2022/09/01 05:46:28;;;;;;;0.60;0.60;;;15.60;78.20;;;15.78;64.11;95241.16;4998275;28;20239;-81
2022/09/01 05:48:57;;;;;;;0.60;0.60;;;15.60;78.10;;;15.85;64.03;95243.78;5013750;28;20252;-81
2022/09/01 05:51:27;;;;;;;0.60;0.60;;;15.70;78.00;;;15.84;64.60;95227.09;4997604;28;20600;-81
2022/09/01 05:54:13;;;;;;;0.60;0.60;;;15.70;78.10;;;15.97;64.13;95239.38;5000026;28;20207;-80
2022/09/01 05:56:43;;;;;;;0.60;0.60;;;15.80;77.90;;;16.03;64.20;95237.72;4997457;28;20222;-81
2022/09/01 05:59:14;;;;;;;0.60;0.60;;;15.90;78.00;;;16.13;64.16;95240.66;5014611;28;20255;-81
2022/09/01 06:01:55;;;;;;;0.60;0.60;;;16.00;78.00;;;16.20;64.62;95239.78;4999187;28;20220;-80
2022/09/01 06:04:24;;;;;;;0.50;0.50;;;16.10;78.00;;;16.25;64.04;95232.81;5013875;28;20666;-81
2022/09/01 06:06:56;;;;;;;0.65;0.65;;;16.10;78.00;;;16.38;64.42;95242.47;4982472;28;20231;-80
2022/09/01 06:09:41;;;;;;;0.70;0.70;;;16.20;78.10;;;16.44;64.33;95227.53;4984281;28;20225;-80
2022/09/01 06:12:16;;;;;;;0.60;0.60;;;16.30;78.30;;;16.58;64.06;95228.19;4981553;28;20698;-80
2022/09/01 06:14:50;;;;;;;0.60;0.60;;;16.40;78.10;;;16.68;63.87;95228.47;4998462;28;20716;-81
2022/09/01 06:17:23;;;;;;;0.60;0.60;;;16.50;78.10;;;16.80;63.99;95234.63;5013537;28;20685;-81
2022/09/01 06:19:57;;;;;;;0.60;0.60;;;16.60;78.00;;;16.92;63.97;95237.38;4997812;28;20621;-81
2022/09/01 06:22:27;;;;;;;0.60;0.60;;;16.80;77.80;;;17.02;64.09;95234.19;5013651;28;20228;-80
2022/09/01 06:24:58;;;;;;;0.60;0.60;;;17.00;77.70;;;17.15;63.60;95238.53;4997364;28;20730;-80
2022/09/01 06:27:33;;;;;;;0.60;0.60;;;16.90;77.50;;;17.24;63.71;95236.34;4998877;28;20220;-81
2022/09/01 06:30:01;;;;;;;0.60;0.60;;;17.10;77.40;;;17.33;63.96;95237.63;4996822;28;20216;-81
2022/09/01 06:32:37;;;;;;;0.60;0.60;;;17.20;77.30;;;17.40;63.45;95240.22;4997853;28;20571;-81
2022/09/01 06:35:07;;;;;;;0.50;0.50;;;17.30;77.00;;;17.49;62.60;95246.81;5012920;28;20250;-81
2022/09/01 06:37:37;;;;;;;0.60;0.60;;;17.40;76.90;;;17.54;62.84;95243.47;5013612;28;20247;-81
2022/09/01 06:40:09;;;;;;;0.50;0.50;;;17.40;76.50;;;17.62;62.19;95250.31;4996863;28;20201;-80
2022/09/01 06:42:36;;;;;;;0.50;0.50;;;17.50;76.30;;;17.65;62.45;95244.53;4981582;28;20584;-81
2022/09/01 06:45:09;;;;;;;0.60;0.60;;;17.60;76.10;;;17.70;62.21;95250.78;4996583;28;20287;-81
2022/09/01 06:47:36;;;;;;;0.50;0.50;;;17.70;76.10;;;17.74;62.24;95248.47;4996579;28;20240;-80
2022/09/01 06:50:07;;;;;;;0.50;0.50;;;17.70;76.00;;;17.82;61.84;95252.63;4980352;28;20197;-80
2022/09/01 06:52:37;;;;;;;0.50;0.50;;;17.70;76.00;;;17.86;61.85;95259.09;5012171;28;20678;-81
2022/09/01 06:55:24;;;;;;;0.50;0.50;;;17.80;75.90;;;17.89;61.71;95266.59;4999207;28;20288;-81
2022/09/01 06:57:53;;;;;;;0.50;0.50;;;17.90;75.40;;;17.91;61.14;95261.88;5028922;28;20307;-81
2022/09/01 07:00:47;;;;;;;0.50;0.50;;;17.90;75.50;;;17.95;61.59;95270.22;5012621;28;20204;-81
2022/09/01 07:03:16;;;;;;;0.50;0.50;;;18.00;75.40;;;18.00;61.54;95267.69;5029309;28;20204;-81
2022/09/01 07:06:18;;;;;;;0.50;0.50;;;18.00;75.50;;;18.04;61.50;95267.00;5011118;28;20227;-80
2022/09/01 07:09:31;;;;;;;0.50;0.50;;;18.00;75.60;;;18.09;61.79;95261.00;5009955;28;20244;-81
2022/09/01 07:12:23;;;;;;;0.50;0.50;;;18.10;75.50;;;18.17;61.60;95250.03;4999600;28;20232;-80
2022/09/01 07:15:14;;;;;;;0.60;0.60;;;18.20;75.60;;;18.23;61.28;95257.06;4999102;28;20200;-80
2022/09/01 07:18:02;;;;;;;0.60;0.60;;;18.20;75.30;;;18.32;61.47;95275.31;4985938;28;20208;-80
2022/09/01 07:20:34;;;;;;;0.50;0.50;;;18.30;75.30;;;18.38;61.38;95261.91;4996076;28;20204;-80
2022/09/01 07:23:04;;;;;;;0.60;0.60;;;18.30;75.20;;;18.45;60.80;95267.09;4997217;28;20694;-80
2022/09/01 07:25:46;;;;;;;0.50;0.50;;;18.40;75.00;;;18.53;60.67;95263.28;4996314;28;20271;-80
2022/09/01 07:28:49;;;;;;;0.50;0.50;;;18.60;74.70;;;18.59;60.41;95261.53;5012171;28;20235;-81
2022/09/01 07:31:27;;;;;;;0.70;0.70;;;18.60;74.60;;;18.68;60.46;95265.47;4979566;28;20217;-80
2022/09/01 07:34:15;;;;;;;0.60;0.60;;;18.60;74.40;;;18.77;60.27;95263.25;5014785;28;20616;-81
2022/09/01 07:37:04;;;;;;;0.55;0.55;;;18.70;75.40;;;18.81;60.19;95265.19;4985491;28;20228;-80
2022/09/01 07:39:52;;;;;;;0.60;0.60;;;18.80;74.30;;;18.93;59.57;95267.03;4984926;28;20280;-80
2022/09/01 07:42:42;;;;;;;0.50;0.50;;;18.90;74.00;;;19.02;59.69;95273.63;5011816;28;20263;-80
2022/09/01 07:45:50;;;;;;;0.50;0.50;;;19.00;74.00;;;19.13;59.34;95271.97;5012471;28;20195;-80
2022/09/01 07:48:27;;;;;;;0.50;0.50;;;19.10;73.80;;;19.25;59.61;95282.53;5011576;28;20604;-80
2022/09/01 07:51:18;;;;;;;0.40;0.40;;;19.20;73.80;;;19.36;59.25;95274.50;5011591;28;20690;-80
2022/09/01 07:54:04;;;;;;;0.50;0.50;;;19.30;73.60;;;19.51;59.33;95281.16;4984473;28;20634;-80
2022/09/01 07:56:31;;;;;;;0.45;0.45;;;19.40;74.20;;;19.63;58.94;95283.78;5011612;28;20216;-81
2022/09/01 07:59:08;;;;;;;0.50;0.50;;;19.50;73.40;;;19.75;58.49;95273.03;5028260;28;20207;-80
2022/09/01 08:01:49;;;;;;;0.40;0.40;;;19.70;73.10;;;19.87;57.42;95275.66;4997336;28;20250;-81
2022/09/01 08:04:21;;;;;;;0.50;0.50;;;19.80;72.10;;;19.98;56.84;95283.59;5027491;28;20205;-80
2022/09/01 08:06:49;;;;;;;0.40;0.40;;;19.90;72.10;;;20.11;57.14;95279.78;4979986;28;20653;-81
2022/09/01 08:09:16;;;;;;;0.40;0.40;;;20.00;72.10;;;20.24;57.17;95281.31;4995090;28;20217;-81
2022/09/01 08:11:59;;;;;;;0.43;0.43;;;20.20;72.10;;;20.38;57.19;95273.78;5011461;28;20220;-80
2022/09/01 08:14:31;;;;;;;0.50;0.50;;;20.30;72.00;;;20.50;56.05;95286.22;4996038;28;20204;-80
2022/09/01 08:17:00;;;;;;;0.45;0.45;;;20.40;71.00;;;20.56;55.26;95283.34;5011141;28;20860;-80
2022/09/01 08:19:45;;;;;;;0.50;0.50;;;20.50;70.60;;;20.63;55.32;95288.53;4983605;28;20235;-80
2022/09/01 08:22:24;;;;;;;0.40;0.40;;;20.60;70.40;;;20.67;55.65;95286.19;4997357;28;20621;-81
2022/09/01 08:25:05;;;;;;;0.40;0.40;;;20.70;70.40;;;20.69;53.90;95284.88;4997280;28;20288;-81
2022/09/01 08:27:40;;;;;;;0.50;0.50;;;20.70;69.00;;;20.72;54.33;95286.25;5011391;28;20225;-81
2022/09/01 08:30:14;;;;;;;0.50;0.50;;;20.80;69.30;;;20.75;54.71;95291.09;4995747;28;20270;-80
2022/09/01 08:32:43;;;;;;;0.50;0.50;;;20.80;69.30;;;20.79;54.64;95293.03;4995608;28;20208;-80
2022/09/01 08:35:14;;;;;;;0.40;0.40;;;20.90;69.40;;;20.81;54.43;95292.75;4995237;28;20207;-80
2022/09/01 08:37:43;;;;;;;0.47;0.47;;;20.90;69.30;;;20.85;54.45;95285.06;4995456;28;20216;-80
2022/09/01 08:40:17;;;;;;;0.40;0.40;;;20.90;69.10;;;20.90;54.55;95285.97;4994958;28;20610;-80
2022/09/01 08:43:07;;;;;;;0.40;0.40;;;20.90;69.00;;;20.92;54.44;95286.53;4994946;28;20312;-80
2022/09/01 08:45:55;;;;;;;0.40;0.40;;;21.00;68.80;;;20.97;54.20;95288.47;5011240;28;20269;-79
2022/09/01 08:48:41;;;;;;;0.40;0.40;;;21.00;68.70;;;21.02;53.96;95287.69;4979225;28;20232;-80
2022/09/01 08:51:59;;;;;;;0.40;0.40;;;21.00;68.30;;;21.04;52.99;95288.25;4998375;28;20283;-80
2022/09/01 08:55:24;;;;;;;0.50;0.50;;;21.10;67.80;;;21.02;53.20;95293.84;5011168;28;20201;-81
2022/09/01 08:57:56;;;;;;;0.60;0.60;;;21.10;68.40;;;21.05;53.01;95288.00;4995022;28;20232;-80
2022/09/01 09:00:31;;;;;;;0.40;0.40;;;21.10;67.70;;;21.14;52.80;95290.22;5011355;28;20545;-80
2022/09/01 09:04:12;;;;;;;0.40;0.40;;;21.10;67.70;;;21.19;53.25;95296.44;4996527;28;20237;-80
2022/09/01 09:07:40;;;;;;;0.50;0.50;;;21.20;68.60;;;21.25;52.71;95286.63;5012882;28;20232;-80
2022/09/01 09:10:36;;;;;;;0.40;0.40;;;21.20;67.90;;;21.30;52.28;95293.88;4935522;29;20229;-80
2022/09/01 09:13:27;;;;;;;0.40;0.40;;;21.30;67.10;;;21.35;52.66;95289.41;4935292;28;20760;-80
2022/09/01 09:16:01;;;;;;;0.40;0.40;;;21.40;67.10;;;21.42;53.00;95284.69;4989519;28;20751;-80
2022/09/01 09:19:34;;;;;;;0.40;0.40;;;21.40;67.30;;;21.48;52.15;95277.53;5014812;28;20186;-80
2022/09/01 09:22:09;;;;;;;0.40;0.40;;;21.50;67.70;;;21.57;50.80;95285.94;5016471;28;20226;-79
2022/09/01 09:24:57;;;;;;;0.30;0.30;;;21.60;66.30;;;21.60;51.58;95280.06;5000970;28;20184;-80
2022/09/01 09:27:31;;;;;;;0.30;0.30;;;21.60;65.90;;;21.67;50.92;95282.56;5014354;28;20238;-80
2022/09/01 09:30:05;;;;;;;0.40;0.40;;;21.70;66.30;;;21.71;51.45;95280.97;4998194;28;20271;-81
2022/09/01 09:32:52;;;;;;;0.50;0.50;;;21.70;66.00;;;21.82;51.63;95289.88;4998671;28;20226;-80
2022/09/01 09:35:43;;;;;;;0.43;0.43;;;21.80;66.70;;;21.95;51.15;95278.78;5001362;28;20214;-81
2022/09/01 09:38:21;;;;;;;0.50;0.50;;;21.80;66.60;;;22.10;50.38;95274.63;5014984;28;20238;-80
2022/09/01 09:41:17;;;;;;;0.60;0.60;;;22.00;65.50;;;22.26;50.68;95276.34;5033932;28;20215;-80
2022/09/01 09:44:15;;;;;;;0.50;0.50;;;22.10;66.20;;;22.48;50.90;95272.78;5023436;28;20200;-80
2022/09/01 09:46:46;;;;;;;0.40;0.40;;;22.30;66.20;;;22.66;50.74;95266.19;4997597;28;20216;-80
2022/09/01 09:49:19;;;;;;;0.40;0.40;;;22.50;66.00;;;22.83;49.29;95269.47;4997309;28;20300;-79
2022/09/01 09:52:08;;;;;;;0.65;0.65;;;22.70;65.60;;;22.99;48.91;95266.88;5016375;28;20740;-80
2022/09/01 09:54:56;;;;;;;0.30;0.30;;;22.80;65.40;;;23.15;49.48;95260.50;5013858;28;20213;-80
2022/09/01 09:57:23;;;;;;;0.60;0.60;;;23.00;65.60;;;23.37;49.16;95264.09;5011280;28;20597;-80
2022/09/01 10:00:07;;;;;;;0.30;0.30;;;23.20;65.20;;;23.54;49.21;95264.63;5013833;28;20203;-80
2022/09/01 10:02:43;;;;;;;0.40;0.40;;;23.40;64.80;;;23.71;48.50;95261.72;5000806;28;20223;-81
2022/09/01 10:05:47;;;;;;;0.47;0.47;;;23.60;64.30;;;23.82;48.85;95255.28;5013430;28;20620;-81
2022/09/01 10:08:46;;;;;;;0.30;0.30;;;23.70;64.60;;;23.91;48.15;95263.63;4997697;28;20200;-80
2022/09/01 10:11:40;;;;;;;0.40;0.40;;;23.90;64.40;;;23.91;48.25;95260.94;4997582;28;20234;-81
2022/09/01 10:14:19;;;;;;;0.40;0.40;;;24.00;63.80;;;23.89;47.76;95260.41;5026982;28;20230;-81
2022/09/01 10:17:13;;;;;;;0.30;0.30;;;24.00;63.10;;;23.85;47.48;95253.94;5020160;28;20223;-80
2022/09/01 10:20:04;;;;;;;0.60;0.60;;;24.00;62.60;;;23.79;47.65;95263.06;5040384;28;20267;-80
2022/09/01 10:22:33;;;;;;;0.40;0.40;;;23.90;62.80;;;23.66;47.25;95254.47;5013575;28;20213;-81
2022/09/01 10:25:00;;;;;;;0.40;0.40;;;23.90;62.80;;;23.67;47.73;95261.44;4996802;28;20207;-81
2022/09/01 10:27:37;;;;;;;0.30;0.30;;;23.80;63.00;;;23.65;47.39;95258.22;5013523;28;20282;-81
2022/09/01 10:30:09;;;;;;;0.40;0.40;;;23.70;62.70;;;23.69;47.60;95255.03;4996610;28;20230;-81
2022/09/01 10:32:54;;;;;;;0.30;0.30;;;23.70;63.60;;;23.76;47.61;95251.00;4997164;28;20661;-79
2022/09/01 10:35:35;;;;;;;0.38;0.38;;;23.80;63.20;;;23.87;47.70;95245.66;4981450;28;20203;-81
2022/09/01 10:38:25;;;;;;;0.45;0.45;;;23.80;63.50;;;23.92;47.63;95249.16;5013172;28;20208;-80
2022/09/01 10:41:06;;;;;;;0.35;0.35;;;23.90;63.00;;;23.95;46.67;95251.31;4996762;28;20266;-81
2022/09/01 10:43:48;;;;;;;0.60;0.60;;;24.00;62.40;;;23.90;46.55;95251.28;4999088;28;20215;-81
2022/09/01 10:46:25;;;;;;;0.40;0.40;;;24.00;62.70;;;23.86;46.80;95244.84;5013232;28;20216;-81
2022/09/01 10:49:23;;;;;;;0.50;0.50;;;23.90;62.30;;;23.80;46.58;95249.41;5014326;28;20225;-81
2022/09/01 10:51:56;;;;;;;0.40;0.40;;;23.90;62.10;;;23.76;46.60;95251.00;4996996;28;20252;-81
2022/09/01 10:54:56;;;;;;;0.50;0.50;;;23.80;62.30;;;23.73;46.86;95253.41;4997989;28;20189;-81
2022/09/01 10:57:30;;;;;;;0.30;0.30;;;23.80;62.60;;;23.70;46.06;95252.06;5012980;28;20745;-81
2022/09/01 11:00:19;;;;;;;0.40;0.40;;;23.80;61.50;;;23.61;46.30;95254.47;5012455;28;20205;-81
2022/09/01 11:03:12;;;;;;;0.40;0.40;;;23.70;62.20;;;23.54;45.98;95245.91;5012473;28;20231;-81